Time;durP1;ratioP1;P1;durP2;ratioP2;P2;SDS_P1;SDS_P2;PMS_P1;PMS_P2;Temp;Humidity;BMP_temperature;BMP_pressure;BME280_temperature;BME280_humidity;BME280_pressure;Samples;Min_cycle;Max_cycle;Signal;HPM_P1;HPM_P2
2023/06/20 00:00:20;;;;;;;;;;;;;;;32.41;26.45;98195.72;5041907;28;20028;-88
2023/06/20 00:02:46;;;;;;;;;;;;;;;32.38;26.71;98199.53;5046560;28;19972;-88
2023/06/20 00:05:12;;;;;;;;;;;;;;;32.41;26.24;98198.56;5045470;28;19920;-88
2023/06/20 00:07:38;;;;;;;;;;;;;;;32.38;26.17;98199.53;5056243;28;19981;-88
2023/06/20 00:10:04;;;;;;;;;;;;;;;32.48;26.33;98194.53;5054106;28;19955;-88
2023/06/20 00:12:31;;;;;;;;;;;;;;;32.29;26.41;98191.09;5046701;28;20418;-88
2023/06/20 00:14:57;;;;;;;;;;;;;;;32.03;26.40;98196.50;5043951;28;19932;-88
2023/06/20 00:17:25;;;;;;;;;;;;;;;32.01;27.13;98196.22;5057015;28;19924;-88
2023/06/20 00:19:51;;;;;;;;;;;;;;;31.93;27.11;98191.34;5055674;28;19921;-88
2023/06/20 00:22:17;;;;;;;;;;;;;;;31.85;26.80;98181.66;5053751;28;19992;-88
2023/06/20 00:24:43;;;;;;;;;;;;;;;31.72;26.98;98178.25;5056052;28;19925;-88
2023/06/20 00:27:09;;;;;;;;;;;;;;;31.54;27.15;98179.19;5048309;28;20007;-88
2023/06/20 00:29:35;;;;;;;;;;;;;;;31.31;27.94;98182.75;5043525;28;19935;-88
2023/06/20 00:32:01;;;;;;;;;;;;;;;31.39;27.77;98187.59;5055514;28;20007;-87
2023/06/20 00:34:27;;;;;;;;;;;;;;;31.15;28.03;98186.78;5051929;28;19925;-88
2023/06/20 00:36:53;;;;;;;;;;;;;;;31.32;28.00;98192.84;5048072;28;19924;-88
2023/06/20 00:39:19;;;;;;;;;;;;;;;31.45;27.78;98175.59;5047898;28;19920;-88
2023/06/20 00:41:45;;;;;;;;;;;;;;;31.32;27.56;98179.44;5054922;28;19921;-88
2023/06/20 00:44:11;;;;;;;;;;;;;;;31.37;27.22;98186.50;5054685;28;20019;-88
2023/06/20 00:46:40;;;;;;;;;;;;;;;31.71;27.16;98180.34;5050726;28;19979;-88
2023/06/20 00:49:07;;;;;;;;;;;;;;;31.91;27.24;98179.69;5055402;28;19921;-87
2023/06/20 00:51:33;;;;;;;;;;;;;;;31.68;26.98;98177.66;5055975;28;19924;-88
2023/06/20 00:54:00;;;;;;;;;;;;;;;31.61;27.13;98180.84;5047223;28;19967;-88
2023/06/20 00:56:27;;;;;;;;;;;;;;;31.69;27.16;98176.41;5050442;28;19921;-87
2023/06/20 00:58:53;;;;;;;;;;;;;;;31.49;27.24;98177.00;5054934;28;20360;-88
2023/06/20 01:01:21;;;;;;;;;;;;;;;31.53;27.25;98177.59;5047776;28;19926;-88
2023/06/20 01:03:50;;;;;;;;;;;;;;;31.70;27.43;98183.63;5047307;28;19932;-88
2023/06/20 01:06:23;;;;;;;;;;;;;;;31.85;26.80;98182.44;5046075;28;20380;-88
2023/06/20 01:09:04;;;;;;;;;;;;;;;31.83;26.58;98189.88;5036179;28;19921;-87
2023/06/20 01:11:49;;;;;;;;;;;;;;;31.92;26.42;98186.94;5040470;28;19921;-87
2023/06/20 01:14:15;;;;;;;;;;;;;;;31.80;26.64;98190.81;5054344;28;20300;-88
2023/06/20 01:16:42;;;;;;;;;;;;;;;31.83;26.90;98190.66;5055807;28;19921;-88
2023/06/20 01:19:18;;;;;;;;;;;;;;;31.98;26.74;98182.97;5041117;28;19925;-88
2023/06/20 01:21:46;;;;;;;;;;;;;;;31.51;27.50;98185.06;5043856;28;19929;-87
2023/06/20 01:24:33;;;;;;;;;;;;;;;31.33;27.52;98183.84;5055648;28;19952;-88
2023/06/20 01:27:14;;;;;;;;;;;;;;;31.08;27.32;98192.00;5043413;28;20336;-88
2023/06/20 01:29:48;;;;;;;;;;;;;;;31.29;27.39;98188.13;5048114;28;19925;-87
2023/06/20 01:32:17;;;;;;;;;;;;;;;31.48;27.17;98188.84;5042857;28;20016;-87
2023/06/20 01:34:47;;;;;;;;;;;;;;;31.52;26.95;98183.75;5044028;28;19928;-87
2023/06/20 01:37:16;;;;;;;;;;;;;;;31.56;26.92;98185.16;5051266;28;19920;-88
2023/06/20 01:39:44;;;;;;;;;;;;;;;31.60;26.52;98190.66;5043499;28;19927;-88
2023/06/20 01:42:10;;;;;;;;;;;;;;;31.78;26.53;98184.84;5054605;28;19921;-87
2023/06/20 01:44:38;;;;;;;;;;;;;;;31.80;26.27;98185.94;5055070;28;19921;-88
2023/06/20 01:47:05;;;;;;;;;;;;;;;31.65;26.64;98173.72;5053447;28;20315;-88
2023/06/20 01:49:32;;;;;;;;;;;;;;;31.51;27.03;98177.28;5055550;28;19917;-88
2023/06/20 01:51:58;;;;;;;;;;;;;;;31.41;26.77;98181.44;5049948;28;19921;-89
2023/06/20 01:54:27;;;;;;;;;;;;;;;31.46;26.94;98180.78;5045930;28;19975;-88
2023/06/20 01:56:54;;;;;;;;;;;;;;;31.59;26.62;98184.19;5046681;28;19936;-88
2023/06/20 01:59:20;;;;;;;;;;;;;;;31.73;26.43;98174.16;5044150;28;20324;-88
2023/06/20 02:01:48;;;;;;;;;;;;;;;31.61;26.64;98180.84;5047152;28;20330;-88
2023/06/20 02:04:15;;;;;;;;;;;;;;;31.47;26.94;98176.69;5049538;28;19963;-88
2023/06/20 02:06:42;;;;;;;;;;;;;;;31.45;26.83;98176.41;5042365;28;20411;-88
2023/06/20 02:09:09;;;;;;;;;;;;;;;31.41;27.19;98175.78;5047277;28;20300;-88
2023/06/20 02:11:36;;;;;;;;;;;;;;;31.30;26.88;98178.34;5053378;28;19921;-88
2023/06/20 02:14:02;;;;;;;;;;;;;;;30.90;27.37;98186.41;5051989;28;19917;-88
2023/06/20 02:16:30;;;;;;;;;;;;;;;30.80;27.83;98182.00;5053185;28;19936;-88
2023/06/20 02:18:56;;;;;;;;;;;;;;;30.69;27.76;98174.78;5053148;28;20007;-88
2023/06/20 02:21:24;;;;;;;;;;;;;;;30.77;27.70;98181.69;5036426;28;20289;-88
2023/06/20 02:23:52;;;;;;;;;;;;;;;30.87;27.93;98178.84;5048420;28;19921;-89
2023/06/20 02:26:19;;;;;;;;;;;;;;;31.12;27.40;98178.44;5041844;28;19917;-88
2023/06/20 02:28:46;;;;;;;;;;;;;;;31.29;27.06;98183.25;5052495;28;19920;-88
2023/06/20 02:31:20;;;;;;;;;;;;;;;31.36;26.82;98177.22;5052608;28;19943;-88
2023/06/20 02:33:48;;;;;;;;;;;;;;;31.19;27.35;98170.38;5044100;28;20317;-88
2023/06/20 02:36:15;;;;;;;;;;;;;;;31.01;27.27;98181.00;5037804;28;20340;-88
2023/06/20 02:38:41;;;;;;;;;;;;;;;30.96;27.44;98178.81;5051064;28;20352;-88
2023/06/20 02:41:07;;;;;;;;;;;;;;;30.94;27.10;98182.16;5054015;28;20015;-88
2023/06/20 02:43:33;;;;;;;;;;;;;;;31.15;27.00;98177.47;5048186;28;19925;-88
2023/06/20 02:46:04;;;;;;;;;;;;;;;30.98;27.51;98181.97;5041424;28;20339;-91
2023/06/20 02:48:37;;;;;;;;;;;;;;;30.94;27.39;98181.34;5053205;28;19921;-91
2023/06/20 02:51:09;;;;;;;;;;;;;;;31.09;27.17;98182.22;5052741;28;19987;-91
2023/06/20 02:53:56;;;;;;;;;;;;;;;31.02;27.16;98188.25;5053418;28;19921;-88
2023/06/20 02:56:23;;;;;;;;;;;;;;;31.21;27.34;98181.22;5051767;28;19921;-88
2023/06/20 02:58:52;;;;;;;;;;;;;;;31.31;26.78;98182.75;5050519;28;20003;-88
2023/06/20 03:01:22;;;;;;;;;;;;;;;31.21;27.22;98179.19;5049733;28;20292;-88
2023/06/20 03:03:49;;;;;;;;;;;;;;;31.21;27.20;98184.06;5051877;28;19924;-88
2023/06/20 03:06:16;;;;;;;;;;;;;;;31.23;27.41;98181.53;5051555;28;19927;-88
2023/06/20 03:08:49;;;;;;;;;;;;;;;31.34;26.91;98178.97;5046751;28;19921;-88
2023/06/20 03:11:15;;;;;;;;;;;;;;;31.54;26.69;98178.38;5048782;28;19917;-88
2023/06/20 03:13:41;;;;;;;;;;;;;;;31.57;26.76;98174.59;5040730;28;19988;-88
2023/06/20 03:16:09;;;;;;;;;;;;;;;31.47;27.20;98173.84;5050778;28;20331;-88
2023/06/20 03:18:36;;;;;;;;;;;;;;;31.50;26.91;98175.75;5050660;28;19966;-88
2023/06/20 03:21:02;;;;;;;;;;;;;;;31.50;26.99;98174.94;5047660;28;19917;-89
2023/06/20 03:23:28;;;;;;;;;;;;;;;31.72;26.71;98169.72;5053756;28;19921;-88
2023/06/20 03:25:54;;;;;;;;;;;;;;;31.87;27.01;98181.94;5053009;28;19948;-89
2023/06/20 03:28:20;;;;;;;;;;;;;;;32.09;26.69;98177.50;5048884;28;20404;-89
2023/06/20 03:30:46;;;;;;;;;;;;;;;32.33;26.17;98176.66;5049355;28;19916;-89
2023/06/20 03:33:12;;;;;;;;;;;;;;;32.62;26.31;98185.25;5051878;28;19932;-88
2023/06/20 03:35:39;;;;;;;;;;;;;;;32.89;26.05;98184.94;5051409;28;19921;-88
2023/06/20 03:38:05;;;;;;;;;;;;;;;33.30;25.99;98191.56;5040635;28;19987;-89
2023/06/20 03:40:31;;;;;;;;;;;;;;;33.66;26.20;98187.44;5053503;28;20317;-88
2023/06/20 03:42:57;;;;;;;;;;;;;;;33.76;26.23;98191.72;5053470;28;19924;-88
2023/06/20 03:45:23;;;;;;;;;;;;;;;33.83;25.12;98191.28;5045205;28;20008;-88
2023/06/20 03:47:49;;;;;;;;;;;;;;;33.54;25.88;98192.19;5044831;28;20400;-88
2023/06/20 03:50:15;;;;;;;;;;;;;;;33.41;25.58;98200.28;5053064;28;19964;-91
2023/06/20 03:52:41;;;;;;;;;;;;;;;33.42;26.27;98196.16;5048282;28;19918;-88
2023/06/20 03:55:07;;;;;;;;;;;;;;;33.51;25.84;98195.22;5047449;28;19928;-88
2023/06/20 03:57:33;;;;;;;;;;;;;;;33.63;25.81;98192.06;5043311;28;19991;-88
2023/06/20 03:59:59;;;;;;;;;;;;;;;33.69;26.17;98198.63;5049896;28;20384;-87
2023/06/20 04:02:25;;;;;;;;;;;;;;;33.84;25.51;98195.72;5046874;28;19974;-90
2023/06/20 04:04:51;;;;;;;;;;;;;;;34.01;25.46;98196.69;5048228;28;19929;-89
2023/06/20 04:07:20;;;;;;;;;;;;;;;34.14;26.37;98196.38;5052965;28;19921;-90
2023/06/20 04:09:49;;;;;;;;;;;;;;;34.49;25.79;98199.88;5040949;28;19921;-89
2023/06/20 04:12:15;;;;;;;;;;;;;;;34.66;25.59;98198.75;5046646;28;19921;-90
2023/06/20 04:14:41;;;;;;;;;;;;;;;34.76;25.69;98182.25;5035733;28;20024;-90
2023/06/20 04:17:07;;;;;;;;;;;;;;;34.87;25.28;98190.91;5039031;28;19956;-89
2023/06/20 04:19:33;;;;;;;;;;;;;;;34.91;25.31;98191.47;5036744;28;19952;-88
2023/06/20 04:21:59;;;;;;;;;;;;;;;35.01;24.86;98192.84;5039257;28;20421;-89
2023/06/20 04:24:25;;;;;;;;;;;;;;;35.21;24.62;98192.00;5045631;28;19921;-87
2023/06/20 04:26:54;;;;;;;;;;;;;;;35.42;25.26;98191.38;5041356;28;19925;-86
2023/06/20 04:29:20;;;;;;;;;;;;;;;35.50;23.59;98197.41;5050031;28;19928;-88
2023/06/20 04:31:47;;;;;;;;;;;;;;;35.52;24.55;98197.69;5050724;28;19974;-90
2023/06/20 04:34:13;;;;;;;;;;;;;;;35.53;23.98;98189.88;5050851;28;19971;-88
2023/06/20 04:36:39;;;;;;;;;;;;;;;35.58;23.39;98200.56;5045978;28;20342;-87
2023/06/20 04:39:06;;;;;;;;;;;;;;;35.59;23.89;98194.38;5050218;28;19920;-88
2023/06/20 04:41:32;;;;;;;;;;;;;;;35.73;24.62;98195.47;5043957;28;19920;-84
2023/06/20 04:44:00;;;;;;;;;;;;;;;35.91;24.64;98198.69;5048056;28;19928;-87
2023/06/20 04:46:26;;;;;;;;;;;;;;;36.04;25.17;98201.88;5045786;28;20059;-90
2023/06/20 04:48:52;;;;;;;;;;;;;;;36.30;23.97;98203.78;5046261;28;19924;-89
2023/06/20 04:51:18;;;;;;;;;;;;;;;36.37;23.83;98203.28;5052087;28;19921;-85
2023/06/20 04:53:49;;;;;;;;;;;;;;;36.39;23.87;98212.91;5052894;28;19954;-89
2023/06/20 04:56:15;;;;;;;;;;;;;;;36.48;24.12;98215.56;5044756;28;19921;-89
2023/06/20 04:58:45;;;;;;;;;;;;;;;36.61;23.61;98213.00;5051102;28;19921;-91
2023/06/20 05:01:11;;;;;;;;;;;;;;;36.62;23.40;98203.09;5050979;28;19921;-90
2023/06/20 05:03:37;;;;;;;;;;;;;;;36.70;23.59;98209.09;5055995;28;19925;-91
2023/06/20 05:06:03;;;;;;;;;;;;;;;36.92;23.83;98209.16;5054510;28;19925;-91
2023/06/20 05:08:29;;;;;;;;;;;;;;;37.09;23.07;98206.28;5053855;28;20562;-90
2023/06/20 05:10:55;;;;;;;;;;;;;;;37.13;23.90;98210.44;5055687;28;19928;-91
2023/06/20 05:13:21;;;;;;;;;;;;;;;37.17;22.67;98208.09;5053035;28;19921;-91
2023/06/20 05:15:48;;;;;;;;;;;;;;;37.04;23.68;98204.22;5054921;28;19967;-91
2023/06/20 05:18:14;;;;;;;;;;;;;;;36.92;23.11;98209.16;5048294;28;19925;-90
2023/06/20 05:20:40;;;;;;;;;;;;;;;36.65;22.96;98196.34;5043974;28;19985;-90
2023/06/20 05:23:06;;;;;;;;;;;;;;;36.61;23.19;98201.53;5054559;28;19999;-89
2023/06/20 05:25:32;;;;;;;;;;;;;;;36.82;23.18;98216.41;5054899;28;19956;-89
2023/06/20 05:27:58;;;;;;;;;;;;;;;36.85;23.66;98206.00;5054908;28;20388;-89
2023/06/20 05:30:24;;;;;;;;;;;;;;;37.30;22.53;98208.34;5053747;28;19924;-89
2023/06/20 05:32:51;;;;;;;;;;;;;;;37.10;23.34;98213.56;5054484;28;20011;-89
2023/06/20 05:35:18;;;;;;;;;;;;;;;37.22;22.80;98204.47;5053039;28;19921;-89
2023/06/20 05:37:46;;;;;;;;;;;;;;;36.93;24.13;98207.84;5046506;28;19948;-87
2023/06/20 05:40:12;;;;;;;;;;;;;;;37.13;22.73;98212.53;5045237;28;20384;-91
2023/06/20 05:42:38;;;;;;;;;;;;;;;37.01;22.67;98208.09;5046358;28;20393;-91
2023/06/20 05:45:04;;;;;;;;;;;;;;;37.00;22.95;98206.53;5059783;28;19925;-90
2023/06/20 05:47:30;;;;;;;;;;;;;;;37.11;23.97;98218.78;5035072;28;19929;-90
2023/06/20 05:49:57;;;;;;;;;;;;;;;37.31;22.66;98209.91;5055409;28;20292;-90
2023/06/20 05:52:23;;;;;;;;;;;;;;;37.50;22.83;98213.06;5053807;28;19921;-90
2023/06/20 05:54:49;;;;;;;;;;;;;;;37.75;22.63;98206.22;5053454;28;19924;-91
2023/06/20 05:57:15;;;;;;;;;;;;;;;38.10;22.17;98210.53;5054566;28;19921;-90
2023/06/20 05:59:41;;;;;;;;;;;;;;;38.10;22.27;98219.13;5053204;28;19971;-90
2023/06/20 06:02:07;;;;;;;;;;;;;;;37.77;22.45;98214.28;5050188;28;19992;-90
2023/06/20 06:04:33;;;;;;;;;;;;;;;37.62;22.70;98222.41;5051767;28;19964;-91
2023/06/20 06:06:59;;;;;;;;;;;;;;;37.63;23.10;98221.09;5053592;28;20015;-88
2023/06/20 06:09:25;;;;;;;;;;;;;;;38.08;21.91;98218.88;5052520;28;19927;-93
2023/06/20 06:11:51;;;;;;;;;;;;;;;37.87;22.57;98221.31;5054595;28;19967;-91
2023/06/20 06:14:18;;;;;;;;;;;;;;;37.93;22.87;98216.31;5054717;28;19921;-91
2023/06/20 06:16:44;;;;;;;;;;;;;;;38.26;20.85;98224.00;5054946;28;20007;-92
2023/06/20 06:19:10;;;;;;;;;;;;;;;38.30;20.53;98216.72;5056775;28;19916;-90
2023/06/20 06:21:36;;;;;;;;;;;;;;;38.51;21.24;98226.50;5053431;28;19921;-90
2023/06/20 06:24:03;;;;;;;;;;;;;;;38.52;21.52;98215.81;5052144;28;19943;-91
2023/06/20 06:26:29;;;;;;;;;;;;;;;38.51;20.93;98220.78;5043753;28;20369;-91
2023/06/20 06:28:55;;;;;;;;;;;;;;;38.47;20.65;98228.09;5052070;28;19975;-88
2023/06/20 06:31:24;;;;;;;;;;;;;;;38.47;22.13;98230.97;5053134;28;19929;-90
2023/06/20 06:33:51;;;;;;;;;;;;;;;38.57;20.62;98224.41;5053267;28;19925;-87
2023/06/20 06:36:18;;;;;;;;;;;;;;;39.04;22.53;98227.25;5054279;28;19925;-87
2023/06/20 06:38:49;;;;;;;;;;;;;;;39.64;20.59;98228.81;5053550;28;19947;-87
2023/06/20 06:41:18;;;;;;;;;;;;;;;39.83;20.73;98228.88;5053600;28;19983;-88
2023/06/20 06:43:44;;;;;;;;;;;;;;;39.88;20.54;98230.91;5048488;28;19925;-88
2023/06/20 06:46:10;;;;;;;;;;;;;;;40.44;19.65;98228.97;5053914;28;20015;-87
2023/06/20 06:48:36;;;;;;;;;;;;;;;40.81;19.13;98236.81;5052986;28;19928;-88
2023/06/20 06:51:03;;;;;;;;;;;;;;;40.86;18.51;98235.97;5053890;28;19916;-90
2023/06/20 06:53:29;;;;;;;;;;;;;;;40.16;19.36;98233.50;5056385;28;20296;-92
2023/06/20 06:55:55;;;;;;;;;;;;;;;40.03;19.09;98233.41;5065887;28;19924;-93
2023/06/20 06:58:21;;;;;;;;;;;;;;;40.34;19.81;98236.38;5056309;28;20311;-86
2023/06/20 07:00:47;;;;;;;;;;;;;;;39.89;20.86;98236.13;5045996;28;19921;-89
2023/06/20 07:03:15;;;;;;;;;;;;;;;39.72;21.58;98229.81;5053496;28;19932;-90
2023/06/20 07:05:41;;;;;;;;;;;;;;;39.63;20.55;98240.88;5053064;28;20380;-89
2023/06/20 07:08:07;;;;;;;;;;;;;;;39.01;21.55;98231.97;5053266;28;19963;-88
2023/06/20 07:10:33;;;;;;;;;;;;;;;39.13;20.72;98238.38;5051970;28;19924;-88
2023/06/20 07:13:00;;;;;;;;;;;;;;;39.10;20.32;98245.19;5052113;28;19932;-88
2023/06/20 07:15:26;;;;;;;;;;;;;;;39.02;21.43;98238.47;5053976;28;19921;-87
2023/06/20 07:17:52;;;;;;;;;;;;;;;39.46;21.22;98234.47;5051213;28;19963;-87
2023/06/20 07:20:18;;;;;;;;;;;;;;;39.24;20.40;98236.22;5052368;28;19921;-87
2023/06/20 07:22:47;;;;;;;;;;;;;;;39.25;19.80;98243.53;5051806;28;20069;-87
2023/06/20 07:25:13;;;;;;;;;;;;;;;39.42;19.54;98246.25;5053102;28;19968;-88
2023/06/20 07:27:39;;;;;;;;;;;;;;;39.92;19.50;98246.56;5053213;28;20023;-87
2023/06/20 07:30:06;;;;;;;;;;;;;;;40.29;19.82;98245.09;5048958;28;19972;-88
2023/06/20 07:32:32;;;;;;;;;;;;;;;40.88;17.91;98255.56;5051719;28;19936;-88
2023/06/20 07:34:58;;;;;;;;;;;;;;;41.10;16.75;98250.25;5046757;28;20015;-88
2023/06/20 07:37:24;;;;;;;;;;;;;;;41.29;17.78;98244.44;5053034;28;19968;-87
2023/06/20 07:39:50;;;;;;;;;;;;;;;40.88;17.27;98244.06;5053177;28;19929;-87
2023/06/20 07:42:16;;;;;;;;;;;;;;;40.99;17.78;98247.53;5052936;28;19927;-87
2023/06/20 07:44:42;;;;;;;;;;;;;;;40.78;18.50;98249.41;5052328;28;20007;-87
2023/06/20 07:47:08;;;;;;;;;;;;;;;40.93;18.10;98257.59;5049990;28;19976;-87
2023/06/20 07:49:34;;;;;;;;;;;;;;;41.17;17.28;98245.97;5051631;28;19931;-88
2023/06/20 07:52:00;;;;;;;;;;;;;;;41.12;18.19;98256.25;5052672;28;19921;-88
2023/06/20 07:54:26;;;;;;;;;;;;;;;40.89;18.43;98243.50;5052244;28;20280;-87
2023/06/20 07:56:52;;;;;;;;;;;;;;;41.07;16.75;98245.59;5053360;28;19924;-88
2023/06/20 07:59:19;;;;;;;;;;;;;;;40.93;17.57;98248.97;5052136;28;20288;-87
2023/06/20 08:01:46;;;;;;;;;;;;;;;40.61;16.81;98255.41;5052288;28;20039;-88
2023/06/20 08:04:12;;;;;;;;;;;;;;;40.36;16.82;98251.00;5048783;28;19963;-88
2023/06/20 08:06:38;;;;;;;;;;;;;;;40.56;16.97;98249.75;5051991;28;19960;-88
2023/06/20 08:09:05;;;;;;;;;;;;;;;40.38;18.05;98253.34;5051792;28;19948;-87
2023/06/20 08:11:31;;;;;;;;;;;;;;;40.62;17.08;98251.22;5052271;28;19964;-87
2023/06/20 08:13:57;;;;;;;;;;;;;;;40.86;17.39;98256.13;5050636;28;19971;-87
2023/06/20 08:16:23;;;;;;;;;;;;;;;40.23;18.66;98253.03;5050098;28;19921;-88
2023/06/20 08:18:49;;;;;;;;;;;;;;;40.17;17.79;98247.31;5052199;28;19931;-88
2023/06/20 08:21:15;;;;;;;;;;;;;;;40.60;18.88;98250.97;5049025;28;19936;-88
2023/06/20 08:23:41;;;;;;;;;;;;;;;40.28;17.72;98252.19;5052121;28;19917;-88
2023/06/20 08:26:07;;;;;;;;;;;;;;;40.54;17.89;98250.25;5054648;28;19935;-88
2023/06/20 08:28:33;;;;;;;;;;;;;;;39.71;18.06;98254.09;5055721;28;19921;-88
2023/06/20 08:30:59;;;;;;;;;;;;;;;40.05;17.95;98251.69;5056004;28;19916;-88
2023/06/20 08:33:25;;;;;;;;;;;;;;;40.31;17.74;98262.63;5053538;28;19943;-88
2023/06/20 08:35:51;;;;;;;;;;;;;;;40.18;16.87;98257.53;5048440;28;20406;-88
2023/06/20 08:38:17;;;;;;;;;;;;;;;40.53;17.10;98256.56;5056189;28;19917;-88
2023/06/20 08:40:43;;;;;;;;;;;;;;;40.88;16.65;98265.00;5056188;28;19921;-88
2023/06/20 08:43:19;;;;;;;;;;;;;;;41.02;15.96;98263.75;5050786;28;20020;-88
2023/06/20 08:51:54;;;;;;;;;;;;;;;41.27;15.12;98259.44;5047291;28;19971;-88
2023/06/20 08:54:21;;;;;;;;;;;;;;;40.78;15.46;98260.94;5053944;28;20007;-88
2023/06/20 08:56:47;;;;;;;;;;;;;;;41.25;15.79;98258.38;5053188;28;19921;-88
2023/06/20 08:59:13;;;;;;;;;;;;;;;41.57;16.32;98256.28;5052819;28;19927;-88
2023/06/20 09:01:39;;;;;;;;;;;;;;;41.84;15.37;98254.25;5048556;28;20388;-89
2023/06/20 09:04:05;;;;;;;;;;;;;;;41.45;15.56;98251.28;5054427;28;19925;-89
2023/06/20 09:06:37;;;;;;;;;;;;;;;40.98;15.85;98256.75;5055156;28;19952;-88
2023/06/20 09:09:13;;;;;;;;;;;;;;;40.67;15.94;98253.25;5055939;28;19921;-89
2023/06/20 09:11:39;;;;;;;;;;;;;;;40.85;15.85;98248.00;5053524;28;19929;-87
2023/06/20 09:14:06;;;;;;;;;;;;;;;41.29;15.96;98248.13;5055024;28;19920;-88
2023/06/20 09:16:32;;;;;;;;;;;;;;;41.18;15.60;98233.09;5046589;28;20015;-88
2023/06/20 09:18:58;;;;;;;;;;;;;;;41.34;16.17;98238.59;5043855;28;19967;-88
2023/06/20 09:21:24;;;;;;;;;;;;;;;41.64;15.14;98238.31;5047626;28;19978;-87
2023/06/20 09:24:00;;;;;;;;;;;;;;;41.29;16.71;98233.72;5054876;28;19983;-87
2023/06/20 09:26:26;;;;;;;;;;;;;;;41.32;15.27;98237.59;5055486;28;19924;-88
2023/06/20 09:29:03;;;;;;;;;;;;;;;41.46;14.30;98230.53;5055550;28;19977;-88
2023/06/20 09:31:38;;;;;;;;;;;;;;;41.40;15.43;98229.09;5054650;28;20380;-88
2023/06/20 09:34:04;;;;;;;;;;;;;;;41.09;15.25;98237.16;5046887;28;20008;-88
2023/06/20 09:36:30;;;;;;;;;;;;;;;41.13;17.00;98228.97;5054966;28;19921;-88
2023/06/20 09:38:59;;;;;;;;;;;;;;;41.40;16.38;98234.84;5055020;28;19921;-88
2023/06/20 09:41:25;;;;;;;;;;;;;;;41.24;16.16;98228.78;5054676;28;19928;-89
2023/06/20 09:43:51;;;;;;;;;;;;;;;41.30;15.42;98238.16;5054558;28;19925;-90
2023/06/20 09:46:17;;;;;;;;;;;;;;;41.52;15.80;98239.09;5055209;28;20000;-89
2023/06/20 09:48:44;;;;;;;;;;;;;;;41.99;15.56;98228.50;5054333;28;20292;-86
2023/06/20 09:51:10;;;;;;;;;;;;;;;41.19;16.26;98235.44;5049643;28;19921;-88
2023/06/20 09:53:45;;;;;;;;;;;;;;;40.94;17.60;98234.00;5052808;28;19925;-88
2023/06/20 09:56:12;;;;;;;;;;;;;;;41.32;15.54;98223.19;5054631;28;19921;-88
2023/06/20 09:58:40;;;;;;;;;;;;;;;41.45;16.29;98226.13;5054541;28;19921;-88
2023/06/20 10:01:07;;;;;;;;;;;;;;;41.95;16.10;98230.94;5052170;28;19920;-88
2023/06/20 10:03:33;;;;;;;;;;;;;;;42.34;14.71;98224.41;5053844;28;19932;-88
2023/06/20 10:06:01;;;;;;;;;;;;;;;42.42;14.87;98226.03;5054294;28;19920;-94
2023/06/20 10:08:27;;;;;;;;;;;;;;;42.15;15.68;98233.19;5046726;28;19923;-88
2023/06/20 10:10:53;;;;;;;;;;;;;;;42.43;15.39;98229.72;5052257;28;20308;-89
2023/06/20 10:13:19;;;;;;;;;;;;;;;42.64;15.14;98231.34;5051553;28;20080;-88
2023/06/20 10:15:45;;;;;;;;;;;;;;;42.86;14.62;98218.47;5054616;28;20442;-89
2023/06/20 10:18:38;;;;;;;;;;;;;;;42.40;15.22;98217.16;5053254;28;19928;-90
2023/06/20 10:21:05;;;;;;;;;;;;;;;42.31;15.46;98214.75;5033113;28;19925;-90
2023/06/20 10:23:32;;;;;;;;;;;;;;;41.04;16.52;98220.75;5034664;28;19959;-90
2023/06/20 10:26:02;;;;;;;;;;;;;;;41.16;15.95;98215.56;5045232;28;19966;-93
2023/06/20 10:28:28;;;;;;;;;;;;;;;41.18;16.63;98215.81;5054279;28;19935;-91
2023/06/20 10:31:00;;;;;;;;;;;;;;;41.41;16.39;98216.22;5053813;28;19921;-90
2023/06/20 10:33:30;;;;;;;;;;;;;;;41.16;15.78;98210.59;5052432;28;19924;-90
2023/06/20 10:36:01;;;;;;;;;;;;;;;42.05;15.80;98206.09;5046130;28;20388;-90
2023/06/20 10:38:28;;;;;;;;;;;;;;;42.67;14.94;98207.09;5035757;28;19933;-89
2023/06/20 10:41:06;;;;;;;;;;;;;;;42.93;14.68;98199.69;5040292;28;20300;-88
2023/06/20 10:43:47;;;;;;;;;;;;;;;42.58;17.46;98198.94;5053198;28;20155;-89
2023/06/20 10:46:13;;;;;;;;;;;;;;;42.47;15.40;98201.25;5053692;28;19956;-89
2023/06/20 10:48:39;;;;;;;;;;;;;;;42.03;15.00;98197.22;5053449;28;19921;-91
2023/06/20 10:51:05;;;;;;;;;;;;;;;41.78;15.28;98192.97;5053105;28;19921;-91
2023/06/20 10:53:31;;;;;;;;;;;;;;;41.83;16.18;98192.88;5045187;28;20258;-89
2023/06/20 10:55:57;;;;;;;;;;;;;;;41.68;15.80;98191.88;5042743;28;19916;-89
2023/06/20 10:58:23;;;;;;;;;;;;;;;39.61;16.88;98206.13;5048623;28;19920;-90
2023/06/20 11:00:53;;;;;;;;;;;;;;;40.52;17.08;98206.84;5052182;28;19924;-89
2023/06/20 11:03:23;;;;;;;;;;;;;;;40.04;16.65;98186.81;5052890;28;19921;-90
2023/06/20 11:05:50;;;;;;;;;;;;;;;40.84;16.12;98197.50;5053763;28;19925;-90
2023/06/20 11:08:25;;;;;;;;;;;;;;;41.22;16.48;98196.06;5051778;28;19920;-90
2023/06/20 11:10:52;;;;;;;;;;;;;;;41.04;17.31;98197.69;5051817;28;19928;-90
2023/06/20 11:13:18;;;;;;;;;;;;;;;39.85;16.97;98192.50;5038918;28;19921;-91
2023/06/20 11:15:44;;;;;;;;;;;;;;;40.69;15.33;98193.00;5049813;28;19920;-90
2023/06/20 11:18:10;;;;;;;;;;;;;;;38.65;18.30;98178.69;5043474;28;19928;-89
2023/06/20 11:20:39;;;;;;;;;;;;;;;37.36;19.89;98189.09;5047938;28;19936;-88
2023/06/20 11:23:06;;;;;;;;;;;;;;;38.24;17.86;98189.34;5052988;28;19928;-88
2023/06/20 11:25:35;;;;;;;;;;;;;;;38.84;18.14;98182.47;5053490;28;20269;-90
2023/06/20 11:28:05;;;;;;;;;;;;;;;40.66;16.18;98181.78;5052939;28;19929;-90
2023/06/20 11:30:32;;;;;;;;;;;;;;;41.98;15.27;98192.31;5053612;28;19928;-90
2023/06/20 11:33:01;;;;;;;;;;;;;;;42.79;15.37;98175.06;5040561;28;19921;-90
2023/06/20 11:35:47;;;;;;;;;;;;;;;43.19;14.12;98173.56;5050840;28;19925;-89
2023/06/20 11:38:15;;;;;;;;;;;;;;;43.50;14.30;98178.28;5051512;28;19928;-89
2023/06/20 11:40:42;;;;;;;;;;;;;;;43.81;14.24;98182.94;5043395;28;19925;-89
2023/06/20 11:43:17;;;;;;;;;;;;;;;43.13;14.41;98167.16;5053626;28;19924;-89
2023/06/20 11:45:43;;;;;;;;;;;;;;;43.08;14.58;98165.19;5052849;28;19944;-89
2023/06/20 11:48:10;;;;;;;;;;;;;;;43.34;13.56;98170.84;5052769;28;20373;-89
2023/06/20 11:50:37;;;;;;;;;;;;;;;43.57;14.23;98165.22;5035054;28;19917;-90
2023/06/20 11:53:03;;;;;;;;;;;;;;;43.40;13.12;98171.44;5050361;28;19920;-91
2023/06/20 11:55:49;;;;;;;;;;;;;;;43.12;13.69;98172.16;5051421;28;19917;-90
2023/06/20 11:58:15;;;;;;;;;;;;;;;43.44;13.41;98168.19;5047830;28;19924;-90
2023/06/20 12:00:46;;;;;;;;;;;;;;;43.70;13.61;98165.13;5055659;28;19929;-91
2023/06/20 12:03:16;;;;;;;;;;;;;;;43.98;13.30;98168.75;5053522;28;19921;-89
2023/06/20 12:05:43;;;;;;;;;;;;;;;44.22;13.95;98169.66;5052023;28;19929;-91
2023/06/20 12:08:09;;;;;;;;;;;;;;;44.16;13.48;98172.72;5047284;28;19944;-90
2023/06/20 12:10:46;;;;;;;;;;;;;;;43.76;13.59;98169.41;5054897;28;20395;-91
2023/06/20 12:13:14;;;;;;;;;;;;;;;44.12;12.85;98166.53;5057632;28;19917;-90
2023/06/20 12:15:41;;;;;;;;;;;;;;;44.13;13.16;98168.09;5051020;28;19947;-89
2023/06/20 12:18:07;;;;;;;;;;;;;;;43.68;13.69;98165.69;5054115;28;20673;-89
2023/06/20 12:20:33;;;;;;;;;;;;;;;43.73;13.42;98158.97;5053974;28;20453;-90
2023/06/20 12:22:59;;;;;;;;;;;;;;;43.91;13.64;98169.50;5051305;28;19924;-91
2023/06/20 12:25:25;;;;;;;;;;;;;;;43.97;14.51;98161.41;5056594;28;19959;-93
2023/06/20 12:27:51;;;;;;;;;;;;;;;43.70;13.68;98157.22;5045613;28;19956;-91
2023/06/20 12:30:17;;;;;;;;;;;;;;;43.86;14.57;98153.06;5049715;28;19917;-89
2023/06/20 12:32:43;;;;;;;;;;;;;;;43.49;14.93;98158.56;5054937;28;20392;-90
2023/06/20 12:35:09;;;;;;;;;;;;;;;43.63;13.64;98157.13;5054146;28;19925;-89
2023/06/20 12:37:35;;;;;;;;;;;;;;;44.19;13.72;98150.53;5056360;28;19921;-87
2023/06/20 12:40:01;;;;;;;;;;;;;;;44.12;13.49;98154.97;5053306;28;19924;-89
2023/06/20 12:42:28;;;;;;;;;;;;;;;44.10;13.32;98151.09;5050439;28;20011;-87
2023/06/20 12:44:54;;;;;;;;;;;;;;;43.98;13.53;98147.72;5045254;28;19924;-87
2023/06/20 12:47:21;;;;;;;;;;;;;;;42.63;14.40;98143.16;5040211;28;20419;-87
2023/06/20 12:49:47;;;;;;;;;;;;;;;42.40;15.16;98138.44;5048832;28;20139;-86
2023/06/20 12:52:13;;;;;;;;;;;;;;;42.50;14.73;98140.28;5050608;28;19986;-87
2023/06/20 12:54:39;;;;;;;;;;;;;;;42.16;15.10;98133.72;5050564;28;19924;-89